createdAt,value
2022-11-21T00:02:14.350Z,100.00
2022-11-21T00:04:42.283Z,100.00
2022-11-21T00:07:11.567Z,100.00
2022-11-21T00:09:39.593Z,100.00
2022-11-21T00:12:07.905Z,100.00
2022-11-21T00:14:35.837Z,100.00
2022-11-21T00:17:03.642Z,100.00
2022-11-21T00:19:31.382Z,100.00
2022-11-21T00:21:59.184Z,100.00
2022-11-21T00:24:28.735Z,100.00
2022-11-21T00:26:56.763Z,100.00
2022-11-21T00:29:24.673Z,100.00
2022-11-21T00:31:52.520Z,100.00
2022-11-21T00:34:20.598Z,100.00
2022-11-21T00:36:48.539Z,100.00
2022-11-21T00:39:16.423Z,100.00
2022-11-21T00:41:46.085Z,100.00
2022-11-21T00:44:13.940Z,100.00
2022-11-21T00:46:42.170Z,100.00
2022-11-21T00:49:10.026Z,100.00
2022-11-21T00:51:37.867Z,100.00
2022-11-21T00:54:05.867Z,100.00
2022-11-21T00:56:33.685Z,100.00
2022-11-21T00:59:03.148Z,100.00
2022-11-21T01:01:31.219Z,100.00
2022-11-21T01:03:59.272Z,100.00
2022-11-21T01:06:27.250Z,100.00
2022-11-21T01:08:55.077Z,100.00
2022-11-21T01:11:24.313Z,100.00
2022-11-21T01:13:54.947Z,100.00
2022-11-21T01:16:26.357Z,100.00
2022-11-21T01:18:54.317Z,100.00
2022-11-21T01:21:24.295Z,100.00
2022-11-21T01:23:52.605Z,100.00
2022-11-21T01:26:22.329Z,100.00
2022-11-21T01:28:51.199Z,100.00
2022-11-21T01:31:20.931Z,100.00
2022-11-21T01:33:50.620Z,100.00
2022-11-21T01:36:20.641Z,100.00
2022-11-21T01:38:50.708Z,100.00
2022-11-21T01:41:20.702Z,100.00
2022-11-21T01:43:49.427Z,100.00
2022-11-21T01:46:19.044Z,100.00
2022-11-21T01:48:53.569Z,100.00
2022-11-21T01:51:26.987Z,100.00
2022-11-21T01:53:59.467Z,100.00
2022-11-21T01:56:29.613Z,100.00
2022-11-21T01:59:02.237Z,100.00
2022-11-21T02:01:31.206Z,100.00
2022-11-21T02:04:04.192Z,100.00
2022-11-21T02:06:34.455Z,100.00
2022-11-21T02:09:02.757Z,100.00
2022-11-21T02:11:36.416Z,100.00
2022-11-21T02:14:04.910Z,100.00
2022-11-21T02:16:32.751Z,100.00
2022-11-21T02:19:02.533Z,100.00
2022-11-21T02:21:41.856Z,100.00
2022-11-21T02:24:15.992Z,100.00
2022-11-21T02:26:47.732Z,100.00
2022-11-21T02:29:15.947Z,100.00
2022-11-21T02:31:43.775Z,100.00
2022-11-21T02:34:11.634Z,100.00
2022-11-21T02:36:45.436Z,100.00
2022-11-21T02:39:18.850Z,100.00
2022-11-21T02:41:55.841Z,100.00
2022-11-21T02:44:28.295Z,100.00
2022-11-21T02:46:56.368Z,100.00
2022-11-21T02:49:32.862Z,100.00
2022-11-21T02:52:00.812Z,100.00
2022-11-21T02:54:28.892Z,100.00
2022-11-21T02:56:58.598Z,100.00
2022-11-21T02:59:26.442Z,100.00
2022-11-21T03:01:54.312Z,100.00
2022-11-21T03:04:22.125Z,100.00
2022-11-21T03:06:49.898Z,100.00
2022-11-21T03:09:17.725Z,100.00
2022-11-21T03:11:45.552Z,100.00
2022-11-21T03:14:14.756Z,100.00
2022-11-21T03:16:42.672Z,100.00
2022-11-21T03:19:10.490Z,100.00
2022-11-21T03:21:38.321Z,100.00
2022-11-21T03:24:07.097Z,100.00
2022-11-21T03:26:34.936Z,100.00
2022-11-21T03:29:02.846Z,100.00
2022-11-21T03:31:32.071Z,100.00
2022-11-21T03:33:59.957Z,100.00
2022-11-21T03:36:28.088Z,100.00
2022-11-21T03:38:57.717Z,100.00
2022-11-21T03:41:31.942Z,100.00
2022-11-21T03:44:00.808Z,100.00
2022-11-21T03:46:29.343Z,100.00
2022-11-21T03:48:58.896Z,100.00
2022-11-21T03:51:27.122Z,100.00
2022-11-21T03:53:55.363Z,100.00
2022-11-21T03:56:23.460Z,100.00
2022-11-21T03:58:51.471Z,100.00
2022-11-21T04:01:19.779Z,100.00
2022-11-21T04:03:48.165Z,100.00
2022-11-21T04:06:19.136Z,100.00
2022-11-21T04:08:47.191Z,100.00
2022-11-21T04:11:15.056Z,100.00
2022-11-21T04:13:42.918Z,100.00
2022-11-21T04:16:10.720Z,100.00
2022-11-21T04:18:38.801Z,100.00
2022-11-21T04:21:08.617Z,100.00
2022-11-21T04:23:37.771Z,100.00
2022-11-21T04:26:05.894Z,100.00
2022-11-21T04:28:33.714Z,100.00
2022-11-21T04:31:10.204Z,100.00
2022-11-21T04:33:39.794Z,100.00
2022-11-21T04:36:08.440Z,100.00
2022-11-21T04:38:38.132Z,100.00
2022-11-21T04:41:06.386Z,100.00
2022-11-21T04:43:34.302Z,100.00
2022-11-21T04:46:02.214Z,100.00
2022-11-21T04:48:30.054Z,100.00
2022-11-21T04:50:57.818Z,100.00
2022-11-21T04:53:25.608Z,100.00
2022-11-21T04:55:54.787Z,100.00
2022-11-21T04:58:22.743Z,100.00
2022-11-21T05:00:50.735Z,100.00
2022-11-21T05:03:18.653Z,100.00
2022-11-21T05:05:46.531Z,100.00
2022-11-21T05:08:14.352Z,100.00
2022-11-21T05:10:59.060Z,100.00
2022-11-21T05:13:28.205Z,100.00
2022-11-21T05:15:57.944Z,100.00
2022-11-21T05:18:26.238Z,100.00
2022-11-21T05:20:54.064Z,100.00
2022-11-21T05:23:22.006Z,100.00
2022-11-21T05:25:49.854Z,100.00
2022-11-21T05:28:17.680Z,100.00
2022-11-21T05:30:46.821Z,100.00
2022-11-21T05:33:14.665Z,100.00
2022-11-21T05:35:43.601Z,100.00
2022-11-21T05:38:11.768Z,100.00
2022-11-21T05:40:39.707Z,100.00
2022-11-21T05:43:24.838Z,100.00
2022-11-21T05:45:54.095Z,100.00
2022-11-21T05:48:21.903Z,100.00
2022-11-21T05:50:50.646Z,100.00
2022-11-21T05:53:19.052Z,100.00
2022-11-21T05:55:47.206Z,100.00
2022-11-21T05:58:15.887Z,100.00
2022-11-21T06:00:43.779Z,100.00
2022-11-21T06:03:27.968Z,100.00
2022-11-21T06:06:04.612Z,100.00
2022-11-21T06:08:34.199Z,100.00
2022-11-21T06:11:02.299Z,100.00
2022-11-21T06:13:30.392Z,100.00
2022-11-21T06:16:02.351Z,100.00
2022-11-21T06:18:34.084Z,100.00
2022-11-21T06:21:03.092Z,100.00
2022-11-21T06:23:31.311Z,100.00
2022-11-21T06:25:59.682Z,100.00
2022-11-21T06:28:27.703Z,100.00
2022-11-21T06:30:55.450Z,100.00
2022-11-21T06:33:23.323Z,100.00
2022-11-21T06:35:52.501Z,100.00
2022-11-21T06:38:20.388Z,100.00
2022-11-21T06:40:48.458Z,100.00
2022-11-21T06:43:16.215Z,100.00
2022-11-21T06:45:44.082Z,100.00
2022-11-21T06:48:11.934Z,100.00
2022-11-21T06:50:40.356Z,100.00
2022-11-21T06:53:09.497Z,100.00
2022-11-21T06:55:37.293Z,100.00
2022-11-21T06:58:05.153Z,100.00
2022-11-21T07:00:33.069Z,100.00
2022-11-21T07:03:03.536Z,100.00
2022-11-21T07:05:31.585Z,100.00
2022-11-21T07:08:00.280Z,100.00
2022-11-21T07:10:30.486Z,100.00
2022-11-21T07:13:16.608Z,100.00
2022-11-21T07:15:45.016Z,100.00
2022-11-21T07:18:12.979Z,100.00
2022-11-21T07:20:41.585Z,100.00
2022-11-21T07:23:10.001Z,100.00
2022-11-21T07:25:39.644Z,100.00
2022-11-21T07:28:09.042Z,100.00
2022-11-21T07:30:37.449Z,100.00
2022-11-21T07:33:07.150Z,100.00
2022-11-21T07:35:35.282Z,100.00
2022-11-21T07:38:04.187Z,100.00
2022-11-21T07:40:33.833Z,100.00
2022-11-21T07:43:08.064Z,100.00
2022-11-21T07:45:39.348Z,100.00
2022-11-21T07:48:08.386Z,100.00
2022-11-21T07:50:36.301Z,100.00
2022-11-21T07:53:05.819Z,100.00
2022-11-21T07:55:39.092Z,100.00
2022-11-21T07:58:11.552Z,100.00
2022-11-21T08:00:43.388Z,100.00
2022-11-21T08:03:12.578Z,100.00
2022-11-21T08:05:42.050Z,100.00
2022-11-21T08:08:10.637Z,100.00
2022-11-21T08:10:39.387Z,100.00
2022-11-21T08:13:08.462Z,100.00
2022-11-21T08:15:38.373Z,100.00
2022-11-21T08:18:10.904Z,100.00
2022-11-21T08:20:38.694Z,100.00
2022-11-21T08:23:07.176Z,100.00
2022-11-21T08:25:35.881Z,100.00
2022-11-21T08:28:03.837Z,100.00
2022-11-21T08:30:32.152Z,100.00
2022-11-21T08:33:01.514Z,100.00
2022-11-21T08:35:29.970Z,100.00
2022-11-21T08:37:58.117Z,100.00
2022-11-21T08:40:27.155Z,100.00
2022-11-21T08:42:58.027Z,100.00
2022-11-21T08:45:26.009Z,100.00
2022-11-21T08:47:54.591Z,100.00
2022-11-21T08:50:24.756Z,100.00
2022-11-21T08:52:52.895Z,100.00
2022-11-21T08:55:21.952Z,100.00
2022-11-21T08:57:49.802Z,100.00
2022-11-21T09:00:18.043Z,100.00
2022-11-21T09:02:45.836Z,100.00
2022-11-21T09:05:13.672Z,100.00
2022-11-21T09:07:43.271Z,100.00
2022-11-21T09:10:11.891Z,100.00
2022-11-21T09:12:39.737Z,100.00
2022-11-21T09:15:26.450Z,100.00
2022-11-21T09:18:07.976Z,100.00
2022-11-21T09:20:40.994Z,100.00
2022-11-21T09:23:14.597Z,100.00
2022-11-21T09:25:43.584Z,100.00
2022-11-21T09:28:13.365Z,100.00
2022-11-21T09:30:42.248Z,100.00
2022-11-21T09:33:13.234Z,100.00
2022-11-21T09:35:41.209Z,100.00
2022-11-21T09:38:11.046Z,99.84
2022-11-21T09:40:46.043Z,100.00
2022-11-21T09:43:25.940Z,99.53
2022-11-21T09:46:00.894Z,99.47
2022-11-21T09:48:34.861Z,98.32
2022-11-21T09:51:07.075Z,98.24
2022-11-21T09:53:40.608Z,99.54
2022-11-21T09:56:14.024Z,98.96
2022-11-21T09:58:45.276Z,97.95
2022-11-21T10:01:14.407Z,96.63
2022-11-21T10:03:45.054Z,96.97
2022-11-21T10:06:18.699Z,95.46
2022-11-21T10:08:59.634Z,94.63
2022-11-21T10:12:02.724Z,93.02
2022-11-21T10:14:46.155Z,92.94
2022-11-21T10:17:23.915Z,94.35
2022-11-21T10:20:08.014Z,96.70
2022-11-21T10:22:49.259Z,96.04
2022-11-21T10:25:27.141Z,96.84
2022-11-21T10:27:59.321Z,98.08
2022-11-21T10:30:27.497Z,97.50
2022-11-21T10:32:58.106Z,97.82
2022-11-21T10:35:30.504Z,96.94
2022-11-21T10:38:02.876Z,96.63
2022-11-21T10:40:38.955Z,98.03
2022-11-21T10:43:34.979Z,97.71
2022-11-21T10:46:03.136Z,96.65
2022-11-21T10:48:30.906Z,93.79
2022-11-21T10:51:12.037Z,93.19
2022-11-21T10:53:57.642Z,91.51
2022-11-21T10:56:28.574Z,91.57
2022-11-21T10:58:59.341Z,89.88
2022-11-21T11:01:29.980Z,90.77
2022-11-21T11:04:36.893Z,91.63
2022-11-21T11:07:23.814Z,90.99
2022-11-21T11:09:53.418Z,92.93
2022-11-21T11:12:47.267Z,91.63
2022-11-21T11:15:20.868Z,90.55
2022-11-21T11:17:53.510Z,90.04
2022-11-21T11:20:37.815Z,88.65
2022-11-21T11:23:25.785Z,87.45
2022-11-21T11:25:55.100Z,87.48
2022-11-21T11:28:25.179Z,87.01
2022-11-21T11:30:55.652Z,85.83
2022-11-21T11:33:33.885Z,85.96
2022-11-21T11:36:13.083Z,83.81
2022-11-21T11:38:44.567Z,84.11
2022-11-21T11:41:20.800Z,85.01
2022-11-21T11:44:20.073Z,85.19
2022-11-21T11:47:15.577Z,85.98
2022-11-21T11:50:00.752Z,81.30
2022-11-21T11:52:32.399Z,80.53
2022-11-21T11:55:06.121Z,81.41
2022-11-21T11:57:36.559Z,81.30
2022-11-21T12:00:10.143Z,82.05
2022-11-21T12:02:50.084Z,80.50
2022-11-21T12:05:25.805Z,79.94
2022-11-21T12:08:40.356Z,79.49
2022-11-21T12:11:16.961Z,81.75
2022-11-21T12:13:49.457Z,79.70
2022-11-21T12:16:18.653Z,78.62
2022-11-21T12:18:54.196Z,79.55
2022-11-21T12:21:23.473Z,79.93
2022-11-21T12:23:52.685Z,81.75
2022-11-21T12:26:35.904Z,82.16
2022-11-21T12:29:26.664Z,83.47
2022-11-21T12:32:16.037Z,85.27
2022-11-21T12:35:03.892Z,86.16
2022-11-21T12:37:40.489Z,84.21
2022-11-21T12:40:29.243Z,82.71
2022-11-21T12:43:09.101Z,82.84
2022-11-21T12:45:39.589Z,81.53
2022-11-21T12:48:35.573Z,83.08
2022-11-21T12:51:39.152Z,82.89
2022-11-21T12:54:33.433Z,83.56
2022-11-21T12:57:09.883Z,84.09
2022-11-21T12:59:49.589Z,84.70
2022-11-21T13:02:31.053Z,84.77
2022-11-21T13:05:02.353Z,85.78
2022-11-21T13:07:33.250Z,86.17
2022-11-21T13:10:03.817Z,85.60
2022-11-21T13:12:36.568Z,85.35
2022-11-21T13:15:17.135Z,85.17
2022-11-21T13:17:47.321Z,85.18
2022-11-21T13:20:24.495Z,84.45
2022-11-21T13:22:54.776Z,83.76
2022-11-21T13:25:47.451Z,81.93
2022-11-21T13:28:35.934Z,82.00
2022-11-21T13:31:26.990Z,80.39
2022-11-21T13:33:55.152Z,79.45
2022-11-21T13:36:39.365Z,79.02
2022-11-21T13:39:35.512Z,79.07
2022-11-21T13:42:29.268Z,78.11
2022-11-21T13:44:57.598Z,78.55
2022-11-21T13:47:59.398Z,80.87
2022-11-21T13:50:56.316Z,80.48
2022-11-21T13:53:43.071Z,81.14
2022-11-21T13:56:25.634Z,81.63
2022-11-21T13:59:07.627Z,81.93
2022-11-21T14:02:07.448Z,81.70
2022-11-21T14:05:07.817Z,82.51
2022-11-21T14:07:37.727Z,82.12
2022-11-21T14:10:19.236Z,80.92
2022-11-21T14:12:50.477Z,81.09
2022-11-21T14:15:29.033Z,82.01
2022-11-21T14:17:58.687Z,81.45
2022-11-21T14:20:28.746Z,82.23
2022-11-21T14:23:01.118Z,82.15
2022-11-21T14:25:47.080Z,83.05
2022-11-21T14:28:22.232Z,83.66
2022-11-21T14:30:58.250Z,83.38
2022-11-21T14:33:29.021Z,84.13
2022-11-21T14:36:01.102Z,84.14
2022-11-21T14:38:31.068Z,84.28
2022-11-21T14:41:29.665Z,85.00
2022-11-21T14:44:06.305Z,86.47
2022-11-21T14:46:35.936Z,87.32
2022-11-21T14:49:25.537Z,86.58
2022-11-21T14:52:00.112Z,86.43
2022-11-21T14:54:31.610Z,87.27
2022-11-21T14:57:03.627Z,87.93
2022-11-21T14:59:34.775Z,88.35
2022-11-21T15:02:04.870Z,88.47
2022-11-21T15:04:34.938Z,89.02
2022-11-21T15:07:03.102Z,88.94
2022-11-21T15:10:26.996Z,89.46
2022-11-21T15:12:27.145Z,88.49
2022-11-21T15:15:00.602Z,88.94
2022-11-21T15:17:29.974Z,89.09
2022-11-21T15:20:11.176Z,88.05
2022-11-21T15:22:57.522Z,89.50
2022-11-21T15:25:27.687Z,90.95
2022-11-21T15:28:11.436Z,93.29
2022-11-21T15:30:39.370Z,94.19
2022-11-21T15:33:10.113Z,93.96
2022-11-21T15:35:52.400Z,93.56
2022-11-21T15:38:24.865Z,91.64
2022-11-21T15:41:14.644Z,91.68
2022-11-21T15:43:47.965Z,91.21
2022-11-21T15:46:18.827Z,91.31
2022-11-21T15:48:47.976Z,92.19
2022-11-21T15:51:20.362Z,93.12
2022-11-21T15:53:52.220Z,93.69
2022-11-21T15:57:11.049Z,93.85
2022-11-21T15:59:11.879Z,93.50
2022-11-21T16:01:40.152Z,95.03
2022-11-21T16:04:09.773Z,96.35
2022-11-21T16:06:38.208Z,98.33
2022-11-21T16:09:06.766Z,99.79
2022-11-21T16:11:38.025Z,100.00
2022-11-21T16:14:07.546Z,100.00
2022-11-21T16:16:42.996Z,100.00
2022-11-21T16:19:12.460Z,100.00
2022-11-21T16:21:40.663Z,100.00
2022-11-21T16:24:08.811Z,100.00
2022-11-21T16:26:36.685Z,100.00
2022-11-21T16:29:05.699Z,100.00
2022-11-21T16:31:34.141Z,100.00
2022-11-21T16:34:03.309Z,100.00
2022-11-21T16:36:32.516Z,100.00
2022-11-21T16:39:07.724Z,100.00
2022-11-21T16:41:37.383Z,100.00
2022-11-21T16:44:05.543Z,100.00
2022-11-21T16:46:33.290Z,100.00
2022-11-21T16:49:03.841Z,100.00
2022-11-21T16:51:31.484Z,100.00
2022-11-21T16:54:04.351Z,100.00
2022-11-21T16:56:36.295Z,100.00
2022-11-21T16:59:04.158Z,100.00
2022-11-21T17:01:32.047Z,100.00
2022-11-21T17:04:00.236Z,100.00
2022-11-21T17:06:31.730Z,100.00
2022-11-21T17:09:00.773Z,100.00
2022-11-21T17:11:31.235Z,100.00
2022-11-21T17:14:00.904Z,100.00
2022-11-21T17:16:29.596Z,100.00
2022-11-21T17:18:59.170Z,100.00
2022-11-21T17:21:29.499Z,100.00
2022-11-21T17:24:05.407Z,100.00
2022-11-21T17:26:37.670Z,100.00
2022-11-21T17:29:05.976Z,100.00
2022-11-21T17:31:33.782Z,100.00
2022-11-21T17:34:01.913Z,100.00
2022-11-21T17:36:34.564Z,100.00
2022-11-21T17:39:02.921Z,100.00
2022-11-21T17:41:30.746Z,100.00
2022-11-21T17:43:59.764Z,100.00
2022-11-21T17:46:28.514Z,100.00
2022-11-21T17:48:58.602Z,100.00
2022-11-21T17:51:28.765Z,100.00
2022-11-21T17:53:59.427Z,100.00
2022-11-21T17:56:29.907Z,100.00
2022-11-21T17:58:57.780Z,100.00
2022-11-21T18:01:25.848Z,100.00
2022-11-21T18:03:56.481Z,100.00
2022-11-21T18:06:25.345Z,100.00
2022-11-21T18:08:53.132Z,100.00
2022-11-21T18:11:22.924Z,100.00
2022-11-21T18:13:51.811Z,100.00
2022-11-21T18:16:21.436Z,100.00
2022-11-21T18:18:50.028Z,100.00
2022-11-21T18:21:19.981Z,100.00
2022-11-21T18:23:48.037Z,100.00
2022-11-21T18:26:19.669Z,100.00
2022-11-21T18:29:06.882Z,100.00
2022-11-21T18:31:38.263Z,100.00
2022-11-21T18:34:06.992Z,100.00
2022-11-21T18:36:35.041Z,100.00
2022-11-21T18:39:08.928Z,100.00
2022-11-21T18:41:41.482Z,100.00
2022-11-21T18:44:11.994Z,100.00
2022-11-21T18:46:41.442Z,100.00
2022-11-21T18:49:09.618Z,100.00
2022-11-21T18:51:38.022Z,100.00
2022-11-21T18:54:08.377Z,100.00
2022-11-21T18:56:37.506Z,100.00
2022-11-21T18:59:06.859Z,100.00
2022-11-21T19:01:39.299Z,100.00
2022-11-21T19:04:07.516Z,100.00
2022-11-21T19:06:36.000Z,100.00
2022-11-21T19:09:04.011Z,100.00
2022-11-21T19:11:32.009Z,100.00
2022-11-21T19:14:01.076Z,100.00
2022-11-21T19:16:30.995Z,100.00
2022-11-21T19:21:49.246Z,100.00
2022-11-21T19:24:17.636Z,100.00
2022-11-21T19:26:45.457Z,100.00
2022-11-21T19:29:13.376Z,100.00
2022-11-21T19:31:45.761Z,100.00
2022-11-21T19:34:15.939Z,100.00
2022-11-21T19:36:44.186Z,100.00
2022-11-21T19:39:12.665Z,100.00
2022-11-21T19:41:40.704Z,100.00
2022-11-21T19:44:08.466Z,100.00
2022-11-21T19:46:38.511Z,100.00
2022-11-21T19:49:07.612Z,100.00
2022-11-21T19:51:38.222Z,100.00
2022-11-21T19:54:07.503Z,100.00
2022-11-21T19:56:36.232Z,100.00
2022-11-21T19:59:04.446Z,100.00
2022-11-21T20:01:34.508Z,100.00
2022-11-21T20:04:03.950Z,100.00
2022-11-21T20:06:34.232Z,100.00
2022-11-21T20:09:06.320Z,100.00
2022-11-21T20:11:34.986Z,100.00
2022-11-21T20:14:02.962Z,100.00
2022-11-21T20:16:32.996Z,100.00
2022-11-21T20:19:02.375Z,100.00
2022-11-21T20:21:30.865Z,100.00
2022-11-21T20:23:58.630Z,100.00
2022-11-21T20:26:27.974Z,100.00
2022-11-21T20:28:55.820Z,100.00
2022-11-21T20:31:26.963Z,100.00
2022-11-21T20:33:56.854Z,100.00
2022-11-21T20:36:26.403Z,100.00
2022-11-21T20:38:55.821Z,100.00
2022-11-21T20:41:25.276Z,100.00
2022-11-21T20:45:41.679Z,100.00
2022-11-21T20:46:44.303Z,100.00
2022-11-21T20:49:12.529Z,100.00
2022-11-21T20:54:28.784Z,100.00
2022-11-21T20:56:56.728Z,100.00
2022-11-21T20:59:26.532Z,100.00
2022-11-21T21:01:54.916Z,100.00
2022-11-21T21:04:22.818Z,100.00
2022-11-21T21:06:50.584Z,100.00
2022-11-21T21:09:18.365Z,100.00
2022-11-21T21:11:53.717Z,100.00
2022-11-21T21:14:22.126Z,100.00
2022-11-21T21:16:51.491Z,100.00
2022-11-21T21:19:19.605Z,100.00
2022-11-21T21:21:47.423Z,100.00
2022-11-21T21:24:17.158Z,100.00
2022-11-21T21:26:46.876Z,100.00
2022-11-21T21:29:17.009Z,100.00
2022-11-21T21:31:50.609Z,100.00
2022-11-21T21:34:22.302Z,100.00
2022-11-21T21:36:50.685Z,100.00
2022-11-21T21:39:18.718Z,100.00
2022-11-21T21:41:47.747Z,100.00
2022-11-21T21:44:16.500Z,100.00
2022-11-21T21:46:44.904Z,100.00
2022-11-21T21:49:13.229Z,100.00
2022-11-21T21:51:43.601Z,100.00
2022-11-21T21:54:17.812Z,100.00
2022-11-21T21:56:46.902Z,100.00
2022-11-21T21:59:15.829Z,100.00
2022-11-21T22:01:43.902Z,100.00
2022-11-21T22:04:13.125Z,100.00
2022-11-21T22:06:41.046Z,100.00
2022-11-21T22:09:10.471Z,100.00
2022-11-21T22:11:39.909Z,100.00
2022-11-21T22:14:11.312Z,100.00
2022-11-21T22:16:39.441Z,100.00
2022-11-21T22:19:07.658Z,100.00
2022-11-21T22:21:37.033Z,100.00
2022-11-21T22:24:24.971Z,100.00
2022-11-21T22:26:55.396Z,100.00
2022-11-21T22:29:23.250Z,100.00
2022-11-21T22:31:51.780Z,100.00
2022-11-21T22:34:19.649Z,100.00
2022-11-21T22:36:47.675Z,100.00
2022-11-21T22:39:15.713Z,100.00
2022-11-21T22:41:43.515Z,100.00
2022-11-21T22:44:13.096Z,100.00
2022-11-21T22:46:40.889Z,100.00
2022-11-21T22:49:08.692Z,100.00
2022-11-21T22:51:36.576Z,100.00
2022-11-21T22:54:04.435Z,100.00
2022-11-21T22:56:32.147Z,100.00
2022-11-21T22:59:00.172Z,100.00
2022-11-21T23:01:29.701Z,100.00
2022-11-21T23:03:57.532Z,100.00
2022-11-21T23:06:27.547Z,100.00
2022-11-21T23:08:56.932Z,100.00
2022-11-21T23:11:27.704Z,100.00
2022-11-21T23:13:56.873Z,100.00
2022-11-21T23:16:25.782Z,100.00
2022-11-21T23:18:56.591Z,100.00
2022-11-21T23:21:24.611Z,100.00
2022-11-21T23:23:52.398Z,100.00
2022-11-21T23:26:20.268Z,100.00
2022-11-21T23:28:48.104Z,100.00
2022-11-21T23:31:16.049Z,100.00
2022-11-21T23:33:43.974Z,100.00
2022-11-21T23:36:13.115Z,100.00
2022-11-21T23:38:41.450Z,100.00
2022-11-21T23:41:09.283Z,100.00
2022-11-21T23:43:37.060Z,100.00
2022-11-21T23:46:04.857Z,100.00
2022-11-21T23:48:32.665Z,100.00
2022-11-21T23:51:00.514Z,100.00
2022-11-21T23:53:29.681Z,100.00
2022-11-21T23:55:57.452Z,100.00
2022-11-21T23:58:25.243Z,100.00
